Time;durP1;ratioP1;P1;durP2;ratioP2;P2;SDS_P1;SDS_P2;PMS_P1;PMS_P2;Temp;Humidity;BMP_temperature;BMP_pressure;BME280_temperature;BME280_humidity;BME280_pressure;Samples;Min_cycle;Max_cycle;Signal;HPM_P1;HPM_P2
2023/09/21 00:00:21;;;;;;;5.38;1.75;;;18.80;99.90;;;;;;5026604;28;20022;-78
2023/09/21 00:02:56;;;;;;;2.35;1.60;;;18.80;99.90;;;;;;5025233;28;20029;-80
2023/09/21 00:05:25;;;;;;;5.75;1.42;;;18.80;99.90;;;;;;5022382;28;20018;-80
2023/09/21 00:07:50;;;;;;;4.85;1.48;;;18.80;99.90;;;;;;5025906;28;20026;-78
2023/09/21 00:10:18;;;;;;;7.57;1.98;;;18.70;99.90;;;;;;5026538;28;20398;-80
2023/09/21 00:12:44;;;;;;;5.25;1.50;;;18.70;99.90;;;;;;5042001;28;20565;-80
2023/09/21 00:15:21;;;;;;;5.43;2.05;;;18.70;99.90;;;;;;5024046;28;20075;-79
2023/09/21 00:17:51;;;;;;;3.28;1.38;;;18.70;99.90;;;;;;5023497;28;20100;-80
2023/09/21 00:20:36;;;;;;;2.08;1.35;;;18.60;99.90;;;;;;5025680;28;20029;-81
2023/09/21 00:23:06;;;;;;;2.45;1.40;;;18.60;99.90;;;;;;5039617;28;20029;-82
2023/09/21 00:25:32;;;;;;;2.95;1.25;;;18.60;99.90;;;;;;5025293;28;20022;-80
2023/09/21 00:27:58;;;;;;;2.00;1.25;;;18.60;99.90;;;;;;5025660;28;20040;-80
2023/09/21 00:30:23;;;;;;;2.92;1.55;;;18.60;99.90;;;;;;5022788;28;20598;-80
2023/09/21 00:32:49;;;;;;;3.85;1.60;;;18.60;99.90;;;;;;5026555;28;20161;-79
2023/09/21 00:35:16;;;;;;;3.78;1.92;;;18.50;99.90;;;;;;5025703;28;20098;-79
2023/09/21 00:37:43;;;;;;;5.03;1.92;;;18.60;99.90;;;;;;5024974;28;20033;-80
2023/09/21 00:40:20;;;;;;;5.35;1.30;;;18.50;99.90;;;;;;5025299;28;20164;-82
2023/09/21 00:42:51;;;;;;;3.15;1.75;;;18.50;99.90;;;;;;5038994;28;20037;-80
2023/09/21 00:45:22;;;;;;;6.20;1.87;;;18.50;99.90;;;;;;5023700;28;20033;-81
2023/09/21 00:47:52;;;;;;;4.90;1.63;;;18.50;99.90;;;;;;5025396;28;20040;-81
2023/09/21 00:50:24;;;;;;;5.15;2.03;;;18.50;99.90;;;;;;5039604;28;20065;-79
2023/09/21 00:52:52;;;;;;;3.30;1.48;;;18.40;99.90;;;;;;5024964;28;20100;-78
2023/09/21 00:55:24;;;;;;;3.63;1.60;;;18.40;99.90;;;;;;5026368;28;20092;-81
2023/09/21 00:57:50;;;;;;;;;;;18.40;99.90;;;;;;5040494;28;20025;-79
2023/09/21 01:00:18;;;;;;;2.42;1.27;;;18.40;99.90;;;;;;5025647;28;19917;-79
2023/09/21 01:02:50;;;;;;;2.72;1.35;;;18.40;99.90;;;;;;5030446;28;20029;-79
2023/09/21 01:05:17;;;;;;;2.03;1.30;;;18.30;99.90;;;;;;5024821;28;20096;-79
2023/09/21 01:07:48;;;;;;;2.35;1.20;;;18.30;99.90;;;;;;5041148;28;20045;-82
2023/09/21 01:10:19;;;;;;;3.45;1.38;;;18.40;99.90;;;;;;5022845;28;20034;-79
2023/09/21 01:12:50;;;;;;;6.75;1.83;;;18.30;99.90;;;;;;5038486;28;20396;-79
2023/09/21 01:15:17;;;;;;;4.82;1.30;;;18.30;99.90;;;;;;5024202;28;20476;-79
2023/09/21 01:17:46;;;;;;;3.17;1.60;;;18.30;99.90;;;;;;5038693;28;20598;-81
2023/09/21 01:20:23;;;;;;;2.33;1.10;;;18.30;99.90;;;;;;5022711;28;20475;-80
2023/09/21 01:22:58;;;;;;;3.47;1.50;;;18.30;99.90;;;;;;5024997;28;20117;-78
2023/09/21 01:25:26;;;;;;;3.25;1.27;;;18.30;99.90;;;;;;5038441;28;20090;-77
2023/09/21 01:27:52;;;;;;;4.28;1.60;;;18.30;99.90;;;;;;5024795;28;20037;-78
2023/09/21 01:30:20;;;;;;;3.75;1.27;;;18.30;99.90;;;;;;5028522;28;20033;-81
2023/09/21 01:32:49;;;;;;;4.20;1.67;;;18.20;99.90;;;;;;5023629;28;20136;-79
2023/09/21 01:35:18;;;;;;;2.95;1.40;;;18.20;99.90;;;;;;5023271;28;20098;-79
2023/09/21 01:37:45;;;;;;;5.13;1.50;;;18.20;99.90;;;;;;5023207;28;20029;-79
2023/09/21 01:40:17;;;;;;;3.13;1.33;;;18.20;99.90;;;;;;5023393;28;20111;-79
2023/09/21 01:42:48;;;;;;;3.05;1.30;;;18.10;99.90;;;;;;5023943;28;20438;-77
2023/09/21 01:45:17;;;;;;;3.65;1.77;;;18.10;99.90;;;;;;5024630;28;20033;-79
2023/09/21 01:47:46;;;;;;;2.05;1.40;;;18.10;99.90;;;;;;5021710;28;20025;-78
2023/09/21 01:50:15;;;;;;;3.67;1.58;;;18.10;99.90;;;;;;5024299;28;20034;-77
2023/09/21 01:52:41;;;;;;;5.10;1.65;;;18.10;99.90;;;;;;5024038;28;20021;-78
2023/09/21 01:55:10;;;;;;;3.75;1.63;;;18.10;99.90;;;;;;5025617;28;20025;-76
2023/09/21 01:57:40;;;;;;;6.55;1.77;;;18.10;99.90;;;;;;5026402;28;20029;-78
2023/09/21 02:00:25;;;;;;;3.58;1.77;;;18.00;99.90;;;;;;5025062;28;20029;-80
2023/09/21 02:02:51;;;;;;;2.63;1.50;;;18.00;99.90;;;;;;5024375;28;20030;-78
2023/09/21 02:05:17;;;;;;;4.20;1.92;;;18.00;99.90;;;;;;5027486;28;20037;-76
2023/09/21 02:07:48;;;;;;;6.28;2.20;;;18.00;99.90;;;;;;5025928;28;20048;-79
2023/09/21 02:10:15;;;;;;;4.93;2.00;;;17.90;99.90;;;;;;5031096;28;20029;-76
2023/09/21 02:12:51;;;;;;;9.27;2.33;;;17.90;99.90;;;;;;5027934;28;20144;-77
2023/09/21 02:15:17;;;;;;;7.45;1.80;;;17.90;99.90;;;;;;5027810;28;20033;-77
2023/09/21 02:17:45;;;;;;;4.57;1.52;;;17.90;99.90;;;;;;5047791;28;20040;-79
2023/09/21 02:20:14;;;;;;;3.10;1.48;;;17.80;99.90;;;;;;5050220;28;20044;-75
2023/09/21 02:22:43;;;;;;;8.70;2.08;;;17.80;99.90;;;;;;5036271;28;20021;-77
2023/09/21 02:25:11;;;;;;;3.25;1.67;;;17.80;99.90;;;;;;5033728;28;20025;-75
2023/09/21 02:27:38;;;;;;;8.85;1.92;;;17.80;99.90;;;;;;5034001;28;20038;-79
2023/09/21 02:30:09;;;;;;;2.92;1.30;;;17.70;99.90;;;;;;5054730;28;20030;-76
2023/09/21 02:32:34;;;;;;;6.45;2.00;;;17.70;99.90;;;;;;5037153;28;20025;-76
2023/09/21 02:35:00;;;;;;;9.25;2.13;;;17.70;99.90;;;;;;5045220;28;20033;-75
2023/09/21 02:37:30;;;;;;;4.22;1.52;;;17.70;99.90;;;;;;5056024;28;20040;-75
2023/09/21 02:39:58;;;;;;;5.28;1.70;;;17.70;99.90;;;;;;5056253;28;20038;-75
2023/09/21 02:42:23;;;;;;;4.13;2.28;;;17.70;99.90;;;;;;5060570;28;20057;-76
2023/09/21 02:44:49;;;;;;;5.43;2.03;;;17.70;99.90;;;;;;5046005;28;20052;-75
2023/09/21 02:47:17;;;;;;;4.47;1.88;;;17.70;99.90;;;;;;5045819;28;20097;-75
2023/09/21 02:49:43;;;;;;;3.85;1.90;;;17.60;99.90;;;;;;5050298;28;20450;-75
2023/09/21 02:52:08;;;;;;;4.50;2.03;;;17.60;99.90;;;;;;5048024;28;20033;-76
2023/09/21 02:54:34;;;;;;;4.85;1.80;;;17.60;99.90;;;;;;5049567;28;20040;-76
2023/09/21 02:57:00;;;;;;;5.47;1.80;;;17.50;99.90;;;;;;5062794;28;20033;-75
2023/09/21 02:59:31;;;;;;;2.97;1.45;;;17.50;99.90;;;;;;5051670;28;20024;-76
2023/09/21 03:01:56;;;;;;;2.38;1.70;;;17.50;99.90;;;;;;5048177;28;20029;-75
2023/09/21 03:04:22;;;;;;;3.42;1.83;;;17.50;99.90;;;;;;5048560;28;20021;-77
2023/09/21 03:06:48;;;;;;;4.10;1.70;;;17.50;99.90;;;;;;5051016;28;20126;-75
2023/09/21 03:09:16;;;;;;;5.00;1.73;;;17.50;99.90;;;;;;5049543;28;20080;-76
2023/09/21 03:11:45;;;;;;;3.80;1.60;;;17.50;99.90;;;;;;5046864;28;20091;-75
2023/09/21 03:14:14;;;;;;;3.33;1.73;;;17.40;99.90;;;;;;5044614;28;20567;-76
2023/09/21 03:16:42;;;;;;;3.33;1.35;;;17.40;99.90;;;;;;5052494;28;20009;-77
2023/09/21 03:19:10;;;;;;;3.40;1.50;;;17.50;99.90;;;;;;5055425;28;20104;-75
2023/09/21 03:21:36;;;;;;;2.97;1.60;;;17.40;99.90;;;;;;5066104;28;20101;-76
2023/09/21 03:24:02;;;;;;;2.58;1.30;;;17.40;99.90;;;;;;5049805;28;20029;-75
2023/09/21 03:26:30;;;;;;;2.67;1.30;;;17.40;99.90;;;;;;5067099;28;20029;-75
2023/09/21 03:28:58;;;;;;;3.40;1.50;;;17.40;99.90;;;;;;5053157;28;20038;-75
2023/09/21 03:31:26;;;;;;;3.83;1.50;;;17.40;99.90;;;;;;5048516;28;20587;-75
2023/09/21 03:33:54;;;;;;;8.43;1.75;;;17.40;99.90;;;;;;5051786;28;20034;-75
2023/09/21 03:36:22;;;;;;;2.40;1.20;;;17.40;99.90;;;;;;5051409;28;20092;-76
2023/09/21 03:38:49;;;;;;;1.63;1.23;;;17.40;99.90;;;;;;5050621;28;20025;-75
2023/09/21 03:41:17;;;;;;;2.40;1.27;;;17.40;99.90;;;;;;5051349;28;20056;-77
2023/09/21 03:43:43;;;;;;;4.32;1.50;;;17.40;99.90;;;;;;5051983;28;20129;-75
2023/09/21 03:46:09;;;;;;;11.32;2.42;;;17.40;99.90;;;;;;5050133;28;20093;-75
2023/09/21 03:48:35;;;;;;;2.92;1.33;;;17.40;99.90;;;;;;5055656;28;20021;-76
2023/09/21 03:51:06;;;;;;;3.53;1.38;;;17.40;99.90;;;;;;5051708;28;20041;-75
2023/09/21 03:53:33;;;;;;;3.05;1.70;;;17.40;99.90;;;;;;5064118;28;20041;-76
2023/09/21 03:56:01;;;;;;;2.40;1.42;;;17.40;99.90;;;;;;5052387;28;20033;-75
2023/09/21 03:58:30;;;;;;;5.22;1.60;;;17.40;99.90;;;;;;5050624;28;20164;-76
2023/09/21 04:00:57;;;;;;;4.38;1.42;;;17.40;99.90;;;;;;5050572;28;20022;-75
2023/09/21 04:03:23;;;;;;;3.13;1.48;;;17.40;99.90;;;;;;5050918;28;20085;-75
2023/09/21 04:05:49;;;;;;;2.25;1.33;;;17.40;99.90;;;;;;5054255;28;20041;-74
2023/09/21 04:08:14;;;;;;;2.20;1.30;;;17.40;99.90;;;;;;5051418;28;20038;-75
2023/09/21 04:10:40;;;;;;;2.25;1.40;;;17.40;99.90;;;;;;5064644;28;20030;-76
2023/09/21 04:13:06;;;;;;;2.35;1.35;;;17.40;99.90;;;;;;5048328;28;20037;-76
2023/09/21 04:15:31;;;;;;;6.53;1.83;;;17.40;99.90;;;;;;5048645;28;20051;-76
2023/09/21 04:17:59;;;;;;;2.20;1.45;;;17.40;99.90;;;;;;5049972;28;20037;-75
2023/09/21 04:20:24;;;;;;;4.53;1.45;;;17.40;99.90;;;;;;5049552;28;20029;-76
2023/09/21 04:22:52;;;;;;;4.15;1.45;;;17.40;99.90;;;;;;5066408;28;20027;-75
2023/09/21 04:25:20;;;;;;;2.63;1.08;;;17.50;99.90;;;;;;5050426;28;20036;-75
2023/09/21 04:27:47;;;;;;;2.88;1.73;;;17.50;99.90;;;;;;5054401;28;20063;-77
2023/09/21 04:30:22;;;;;;;6.40;1.45;;;17.50;99.90;;;;;;5066369;28;20056;-76
2023/09/21 04:32:48;;;;;;;3.35;1.67;;;17.50;99.90;;;;;;5063763;28;20037;-74
2023/09/21 04:35:15;;;;;;;3.20;1.60;;;17.40;99.90;;;;;;5051492;28;20040;-77
2023/09/21 04:37:43;;;;;;;6.47;1.73;;;17.40;99.90;;;;;;5048997;28;20025;-76
2023/09/21 04:40:11;;;;;;;3.72;1.30;;;17.50;99.90;;;;;;5062922;28;20029;-75
2023/09/21 04:42:40;;;;;;;3.78;1.40;;;17.50;99.90;;;;;;5048733;28;20021;-76
2023/09/21 04:45:11;;;;;;;6.68;1.60;;;17.50;99.90;;;;;;5061227;28;20057;-77
2023/09/21 04:47:44;;;;;;;4.20;1.52;;;17.50;99.90;;;;;;5047825;28;20025;-78
2023/09/21 04:50:14;;;;;;;3.15;1.75;;;17.50;99.90;;;;;;5048649;28;20041;-77
2023/09/21 04:52:39;;;;;;;2.03;1.50;;;17.50;99.90;;;;;;5044950;28;20041;-77
2023/09/21 04:55:09;;;;;;;7.15;1.58;;;17.50;99.90;;;;;;5047750;28;20040;-76
2023/09/21 04:57:35;;;;;;;5.82;1.63;;;17.50;99.90;;;;;;5047744;28;20033;-79
2023/09/21 05:00:07;;;;;;;3.30;1.60;;;17.50;99.90;;;;;;5048707;28;20029;-74
2023/09/21 05:02:33;;;;;;;4.47;1.30;;;17.50;99.90;;;;;;5049324;28;20040;-75
2023/09/21 05:04:59;;;;;;;4.07;1.52;;;17.50;99.90;;;;;;5050533;28;20025;-75
2023/09/21 05:07:25;;;;;;;3.05;1.42;;;17.50;99.90;;;;;;5049456;28;20033;-76
2023/09/21 05:09:51;;;;;;;4.28;1.80;;;17.50;99.90;;;;;;5061670;28;20033;-76
2023/09/21 05:12:20;;;;;;;5.78;1.45;;;17.60;99.90;;;;;;5048181;28;20331;-78
2023/09/21 05:14:50;;;;;;;3.42;1.60;;;17.60;99.90;;;;;;5047335;28;20040;-77
2023/09/21 05:17:16;;;;;;;3.00;1.55;;;17.60;99.90;;;;;;5048785;28;20036;-76
2023/09/21 05:19:42;;;;;;;2.38;1.27;;;17.70;99.90;;;;;;5060034;28;20101;-76
2023/09/21 05:22:10;;;;;;;2.55;1.33;;;17.70;99.90;;;;;;5063611;28;20111;-75
2023/09/21 05:24:37;;;;;;;4.28;1.80;;;17.70;99.90;;;;;;5034607;28;20089;-79
2023/09/21 05:27:06;;;;;;;3.78;1.38;;;17.70;99.90;;;;;;5036887;28;20030;-77
2023/09/21 05:29:32;;;;;;;3.90;1.63;;;17.80;99.90;;;;;;5045810;28;20052;-76
2023/09/21 05:32:00;;;;;;;4.28;1.52;;;17.80;99.90;;;;;;5032620;28;20715;-78
2023/09/21 05:34:28;;;;;;;3.55;1.35;;;17.90;99.90;;;;;;5026030;28;20052;-78
2023/09/21 05:36:54;;;;;;;2.90;1.45;;;17.90;99.90;;;;;;5041897;28;20044;-79
2023/09/21 05:39:23;;;;;;;5.65;2.00;;;17.90;99.90;;;;;;5024624;28;20462;-78
2023/09/21 05:41:54;;;;;;;3.25;1.80;;;18.00;99.90;;;;;;5026862;28;20073;-79
2023/09/21 05:44:25;;;;;;;4.30;1.67;;;18.00;99.90;;;;;;5025674;28;20038;-79
2023/09/21 05:46:54;;;;;;;4.93;2.03;;;18.10;99.90;;;;;;5024318;28;20067;-78
2023/09/21 05:49:23;;;;;;;4.13;2.25;;;18.00;99.90;;;;;;5026425;28;20033;-79
2023/09/21 05:51:59;;;;;;;3.10;1.50;;;18.10;99.90;;;;;;5019449;28;20053;-81
2023/09/21 05:54:26;;;;;;;4.63;1.75;;;18.10;99.90;;;;;;5023421;28;20120;-79
2023/09/21 05:56:56;;;;;;;4.82;2.15;;;18.20;99.90;;;;;;5023742;28;20685;-80
2023/09/21 05:59:25;;;;;;;4.20;1.60;;;18.10;99.90;;;;;;5024454;28;20029;-81
2023/09/21 06:01:51;;;;;;;5.43;1.73;;;18.10;99.90;;;;;;5026382;28;20084;-79
2023/09/21 06:04:21;;;;;;;7.75;2.10;;;18.10;99.90;;;;;;5024495;28;20046;-79
2023/09/21 06:06:47;;;;;;;5.28;2.05;;;18.20;99.90;;;;;;5024436;28;20028;-78
2023/09/21 06:09:19;;;;;;;4.60;1.55;;;18.30;99.90;;;;;;5025826;28;20029;-79
2023/09/21 06:11:48;;;;;;;10.25;2.55;;;18.30;99.90;;;;;;5038445;28;20036;-79
2023/09/21 06:14:18;;;;;;;3.88;1.60;;;18.30;99.90;;;;;;5022865;28;20017;-80
2023/09/21 06:16:45;;;;;;;4.28;1.65;;;18.40;99.90;;;;;;5021459;28;20067;-80
2023/09/21 06:19:13;;;;;;;2.50;1.45;;;18.50;99.90;;;;;;5024130;28;20108;-81
2023/09/21 06:21:42;;;;;;;3.65;1.27;;;18.50;99.90;;;;;;5025541;28;20076;-82
2023/09/21 06:24:09;;;;;;;4.72;1.75;;;18.60;99.90;;;;;;5023169;28;20030;-79
2023/09/21 06:26:40;;;;;;;2.60;1.70;;;18.70;99.90;;;;;;5037304;28;20112;-81
2023/09/21 06:29:05;;;;;;;3.85;2.08;;;18.80;99.90;;;;;;5022732;28;20034;-82
2023/09/21 06:31:32;;;;;;;3.47;1.70;;;18.80;99.90;;;;;;5024015;28;20107;-79
2023/09/21 06:34:01;;;;;;;5.05;2.10;;;18.90;99.90;;;;;;5022055;28;20079;-80
2023/09/21 06:36:32;;;;;;;5.45;2.13;;;19.00;99.90;;;;;;5022919;28;20031;-83
2023/09/21 06:38:59;;;;;;;6.93;2.00;;;19.00;99.90;;;;;;5022781;28;21412;-85
2023/09/21 06:41:26;;;;;;;3.10;1.27;;;19.10;99.90;;;;;;5024058;28;20033;-80
2023/09/21 06:43:51;;;;;;;3.00;1.75;;;19.10;99.90;;;;;;5036486;28;20108;-83
2023/09/21 06:46:18;;;;;;;5.68;1.70;;;19.20;99.90;;;;;;5023460;28;20434;-81
2023/09/21 06:48:46;;;;;;;6.80;2.22;;;19.20;99.90;;;;;;5023865;28;20087;-81
2023/09/21 06:51:14;;;;;;;7.72;1.92;;;19.30;99.90;;;;;;5027078;28;20074;-85
2023/09/21 06:53:43;;;;;;;4.30;1.77;;;19.30;99.90;;;;;;5026582;28;20041;-81
2023/09/21 06:56:09;;;;;;;2.90;1.45;;;19.30;99.90;;;;;;5027447;28;20036;-86
2023/09/21 06:58:35;;;;;;;6.05;1.70;;;19.30;99.90;;;;;;5026638;28;20052;-80
2023/09/21 07:01:02;;;;;;;5.78;2.03;;;19.30;99.90;;;;;;5023404;28;20040;-84
2023/09/21 07:03:28;;;;;;;6.13;2.00;;;19.30;99.90;;;;;;5026458;28;20059;-82
2023/09/21 07:05:53;;;;;;;5.65;2.03;;;19.30;99.90;;;;;;5024397;28;20434;-81
2023/09/21 07:08:20;;;;;;;6.70;1.98;;;19.30;99.90;;;;;;5026796;28;20030;-84
2023/09/21 07:10:49;;;;;;;5.40;1.83;;;19.30;99.90;;;;;;5023658;28;20025;-81
2023/09/21 07:13:14;;;;;;;3.53;1.20;;;19.30;99.90;;;;;;5027119;28;20029;-81
2023/09/21 07:15:45;;;;;;;2.65;1.48;;;19.40;99.90;;;;;;5027346;28;20022;-85
2023/09/21 07:18:13;;;;;;;5.97;2.55;;;19.40;99.90;;;;;;5026022;28;20104;-79
2023/09/21 07:20:38;;;;;;;8.65;3.03;;;19.50;99.90;;;;;;5027566;28;20038;-83
2023/09/21 07:23:09;;;;;;;6.25;2.10;;;19.60;99.90;;;;;;5027220;28;20096;-83
2023/09/21 07:25:35;;;;;;;4.75;1.85;;;19.60;99.90;;;;;;5026325;28;20626;-83
2023/09/21 07:28:06;;;;;;;3.50;1.75;;;19.70;99.90;;;;;;5027446;28;20030;-78
2023/09/21 07:30:35;;;;;;;9.47;2.27;;;19.70;99.90;;;;;;5026408;28;20370;-82
2023/09/21 07:33:01;;;;;;;3.80;1.60;;;19.70;99.90;;;;;;5041990;28;20021;-79
2023/09/21 07:35:27;;;;;;;3.35;1.63;;;19.80;99.90;;;;;;5026813;28;20080;-81
2023/09/21 07:37:53;;;;;;;6.88;1.83;;;19.90;99.90;;;;;;5039732;28;20029;-85
2023/09/21 07:40:21;;;;;;;10.52;1.90;;;20.00;99.90;;;;;;5025826;28;20033;-84
2023/09/21 07:42:51;;;;;;;6.18;1.80;;;20.00;99.90;;;;;;5025656;28;20538;-83
2023/09/21 07:45:18;;;;;;;7.38;1.60;;;20.10;99.90;;;;;;5044329;28;20041;-83
2023/09/21 07:47:46;;;;;;;3.42;1.52;;;20.20;99.90;;;;;;5044233;28;20033;-81
2023/09/21 07:50:12;;;;;;;5.18;1.80;;;20.30;99.90;;;;;;5021557;28;20128;-83
2023/09/21 07:52:38;;;;;;;3.70;1.50;;;20.40;99.90;;;;;;5027670;28;20108;-80
2023/09/21 07:55:05;;;;;;;4.30;1.63;;;20.40;99.90;;;;;;5025600;28;20394;-81
2023/09/21 07:57:34;;;;;;;2.45;1.63;;;20.50;99.90;;;;;;5026369;28;20087;-83
2023/09/21 08:00:00;;;;;;;7.65;2.00;;;20.50;99.90;;;;;;5022809;28;20091;-81
2023/09/21 08:02:29;;;;;;;7.38;1.50;;;20.50;99.90;;;;;;5037019;28;20450;-81
2023/09/21 08:04:55;;;;;;;7.47;1.88;;;20.60;99.90;;;;;;5023726;28;20030;-81
2023/09/21 08:07:26;;;;;;;3.10;1.50;;;20.60;99.90;;;;;;5025872;28;20031;-80
2023/09/21 08:09:54;;;;;;;5.07;1.63;;;20.60;99.90;;;;;;5027032;28;20037;-81
2023/09/21 08:12:24;;;;;;;5.78;1.90;;;20.70;99.90;;;;;;5039451;28;20236;-83
2023/09/21 08:14:50;;;;;;;6.13;1.65;;;20.70;99.90;;;;;;5023802;28;20029;-84
2023/09/21 08:17:18;;;;;;;5.00;1.77;;;20.70;99.90;;;;;;5039967;28;20114;-83
2023/09/21 08:19:47;;;;;;;4.25;1.77;;;20.70;99.90;;;;;;5030746;28;20040;-82
2023/09/21 08:22:13;;;;;;;4.47;1.40;;;20.70;99.90;;;;;;5025077;28;20136;-81
2023/09/21 08:24:41;;;;;;;4.05;2.20;;;20.70;99.90;;;;;;5025772;28;20030;-80
2023/09/21 08:27:10;;;;;;;5.25;1.90;;;20.70;99.90;;;;;;5029859;28;20028;-83
2023/09/21 08:29:36;;;;;;;3.13;1.67;;;20.70;99.90;;;;;;5026668;28;20047;-81
2023/09/21 08:32:02;;;;;;;3.10;1.42;;;20.70;99.90;;;;;;5040235;28;20037;-83
2023/09/21 08:34:30;;;;;;;3.92;1.55;;;20.80;99.90;;;;;;5025424;28;20418;-83
2023/09/21 08:36:55;;;;;;;6.57;1.98;;;20.70;99.90;;;;;;5026077;28;20041;-83
2023/09/21 08:39:22;;;;;;;6.43;1.83;;;20.70;99.90;;;;;;5024829;28;20072;-79
2023/09/21 08:41:51;;;;;;;5.80;1.70;;;20.80;99.90;;;;;;5037416;28;20060;-84
2023/09/21 08:44:22;;;;;;;7.32;2.17;;;20.80;99.90;;;;;;5036942;28;20188;-79
2023/09/21 08:46:51;;;;;;;11.52;1.88;;;20.90;99.90;;;;;;5039399;28;20107;-82
2023/09/21 08:49:21;;;;;;;3.70;1.73;;;20.90;99.90;;;;;;5024220;28;20048;-82
2023/09/21 08:51:52;;;;;;;6.47;1.45;;;20.90;99.90;;;;;;5026099;28;20049;-79
2023/09/21 08:54:23;;;;;;;5.63;1.45;;;20.90;99.90;;;;;;5026029;28;20450;-83
2023/09/21 08:56:55;;;;;;;5.50;2.15;;;21.00;99.90;;;;;;5025398;28;20033;-78
2023/09/21 08:59:23;;;;;;;4.43;1.70;;;21.00;99.90;;;;;;5025143;28;20026;-80
2023/09/21 09:01:49;;;;;;;7.40;1.77;;;21.10;99.90;;;;;;5038115;28;20029;-80
2023/09/21 09:04:14;;;;;;;3.42;1.58;;;21.20;99.90;;;;;;5038437;28;20029;-80
2023/09/21 09:06:42;;;;;;;5.95;1.85;;;21.20;99.90;;;;;;5024863;28;20469;-84
2023/09/21 09:09:15;;;;;;;5.78;1.80;;;21.30;99.90;;;;;;5024037;28;20034;-83
2023/09/21 09:11:45;;;;;;;2.72;1.50;;;21.40;99.90;;;;;;5024201;28;21074;-81
2023/09/21 09:14:12;;;;;;;6.53;1.88;;;21.50;99.90;;;;;;5022995;28;20032;-82
2023/09/21 09:16:38;;;;;;;4.13;2.08;;;21.50;99.90;;;;;;5039097;28;20036;-83
2023/09/21 09:19:11;;;;;;;7.95;2.53;;;21.60;99.90;;;;;;5024626;28;20021;-81
2023/09/21 09:21:42;;;;;;;3.90;1.83;;;21.60;99.90;;;;;;5038283;28;20035;-81
2023/09/21 09:24:08;;;;;;;3.58;1.60;;;21.70;99.90;;;;;;5021182;28;21810;-82
2023/09/21 09:26:38;;;;;;;7.13;1.98;;;21.70;99.90;;;;;;5040404;28;20029;-83
2023/09/21 09:29:09;;;;;;;6.53;1.75;;;21.80;99.90;;;;;;5023976;28;20025;-79
2023/09/21 09:31:41;;;;;;;5.50;2.42;;;21.80;99.90;;;;;;5037206;28;20018;-84
2023/09/21 09:34:17;;;;;;;5.10;2.50;;;21.90;99.90;;;;;;5024006;28;20465;-84
2023/09/21 09:36:51;;;;;;;7.55;2.10;;;21.80;99.90;;;;;;5035960;28;20037;-79
2023/09/21 09:39:20;;;;;;;7.20;2.50;;;21.90;99.90;;;;;;5021186;28;20062;-84
2023/09/21 09:41:50;;;;;;;9.35;2.13;;;22.00;99.90;;;;;;5021078;28;20037;-81
2023/09/21 09:44:26;;;;;;;5.43;1.48;;;22.00;99.90;;;;;;5023833;28;20037;-81
2023/09/21 09:46:58;;;;;;;3.33;2.03;;;22.10;99.90;;;;;;5023912;28;20654;-81
2023/09/21 09:49:29;;;;;;;5.93;1.92;;;22.10;99.90;;;;;;5023113;28;20268;-83
2023/09/21 09:51:57;;;;;;;3.97;1.70;;;22.00;99.90;;;;;;5024672;28;20029;-80
2023/09/21 09:54:26;;;;;;;4.70;2.03;;;22.00;99.90;;;;;;5039287;28;20351;-83
2023/09/21 09:56:55;;;;;;;10.73;1.88;;;22.00;99.90;;;;;;5023892;28;20628;-81
2023/09/21 09:59:23;;;;;;;3.63;1.60;;;22.00;99.90;;;;;;5021484;28;21780;-81
2023/09/21 10:01:49;;;;;;;4.93;1.40;;;22.00;99.90;;;;;;5021020;28;20052;-79
2023/09/21 10:04:19;;;;;;;3.20;1.60;;;22.10;99.90;;;;;;5025178;28;20041;-82
2023/09/21 10:06:47;;;;;;;5.22;1.45;;;22.10;99.90;;;;;;5023421;28;20036;-80
2023/09/21 10:09:18;;;;;;;5.32;1.77;;;22.10;99.90;;;;;;5024397;28;20033;-80
2023/09/21 10:11:48;;;;;;;3.78;1.60;;;22.10;99.90;;;;;;5023603;28;20040;-81
2023/09/21 10:14:17;;;;;;;4.50;1.73;;;22.20;99.90;;;;;;5021372;28;20032;-79
2023/09/21 10:16:54;;;;;;;2.63;1.40;;;22.20;99.90;;;;;;5024445;28;20127;-83
2023/09/21 10:19:26;;;;;;;3.78;1.40;;;22.30;99.90;;;;;;5024955;28;20045;-81
2023/09/21 10:22:03;;;;;;;7.43;1.58;;;22.30;99.90;;;;;;5024003;28;20025;-80
2023/09/21 10:24:30;;;;;;;4.15;1.58;;;22.30;99.90;;;;;;5025993;28;20053;-82
2023/09/21 10:27:01;;;;;;;5.88;1.83;;;22.40;99.90;;;;;;5043171;28;20111;-84
2023/09/21 10:29:33;;;;;;;2.72;1.30;;;22.40;99.90;;;;;;5030751;28;20097;-80
2023/09/21 10:32:09;;;;;;;5.63;1.50;;;22.40;99.90;;;;;;5032318;28;20021;-83
2023/09/21 10:34:42;;;;;;;7.57;2.00;;;22.40;99.90;;;;;;5027794;28;20108;-83
2023/09/21 10:37:10;;;;;;;3.85;1.75;;;22.40;99.90;;;;;;5027270;28;20125;-82
2023/09/21 10:39:42;;;;;;;6.43;1.98;;;22.50;99.90;;;;;;5028286;28;20105;-81
2023/09/21 10:42:07;;;;;;;4.53;1.80;;;22.50;99.90;;;;;;5029650;28;20040;-81
2023/09/21 10:45:07;;;;;;;3.95;1.20;;;22.50;99.90;;;;;;5041652;28;20528;-82
2023/09/21 10:47:54;;;;;;;6.45;1.80;;;22.60;99.90;;;;;;5026414;28;20056;-83
2023/09/21 10:50:24;;;;;;;1.77;0.95;;;22.60;99.90;;;;;;5025281;28;20065;-81
2023/09/21 10:52:55;;;;;;;3.25;1.90;;;22.60;99.90;;;;;;5026460;28;20032;-81
2023/09/21 10:55:21;;;;;;;4.45;1.70;;;22.50;99.90;;;;;;5040478;28;20102;-83
2023/09/21 10:57:53;;;;;;;5.45;1.40;;;22.50;99.90;;;;;;5031266;28;20053;-81
2023/09/21 11:00:21;;;;;;;2.72;1.83;;;22.50;99.90;;;;;;5039760;28;20033;-83
2023/09/21 11:02:49;;;;;;;5.30;1.50;;;22.50;99.90;;;;;;5041729;28;20659;-83
2023/09/21 11:05:21;;;;;;;3.08;1.77;;;22.50;99.90;;;;;;5026082;28;20088;-80
2023/09/21 11:07:48;;;;;;;2.63;1.83;;;22.50;99.90;;;;;;5041055;28;20033;-80
2023/09/21 11:10:14;;;;;;;6.78;1.55;;;22.50;99.90;;;;;;5025614;28;20125;-79
2023/09/21 11:12:44;;;;;;;5.18;1.63;;;22.60;99.90;;;;;;5026180;28;20033;-83
2023/09/21 11:15:12;;;;;;;3.50;1.42;;;22.70;99.90;;;;;;5025249;28;20025;-79
2023/09/21 11:17:41;;;;;;;9.18;2.10;;;22.70;99.90;;;;;;5026228;28;20029;-79
2023/09/21 11:20:12;;;;;;;3.38;1.33;;;22.70;99.90;;;;;;5041104;28;20044;-79
2023/09/21 11:22:41;;;;;;;4.13;1.80;;;22.70;99.90;;;;;;5025086;28;20679;-82
2023/09/21 11:25:09;;;;;;;5.13;1.60;;;22.70;99.90;;;;;;5039956;28;20037;-83
2023/09/21 11:27:35;;;;;;;3.35;1.40;;;22.80;99.90;;;;;;5026479;28;20040;-79
2023/09/21 11:30:00;;;;;;;7.57;1.38;;;22.80;99.90;;;;;;5024914;28;20034;-84
2023/09/21 11:32:27;;;;;;;4.10;1.02;;;22.90;99.90;;;;;;5025318;28;20896;-83
2023/09/21 11:34:59;;;;;;;4.30;1.40;;;22.90;99.90;;;;;;5040029;28;20060;-79
2023/09/21 11:37:28;;;;;;;;;;;22.90;99.90;;;;;;5026522;28;20030;-81
2023/09/21 11:39:55;;;;;;;4.65;1.33;;;22.80;99.90;;;;;;5026554;28;19923;-81
2023/09/21 11:42:25;;;;;;;8.30;1.60;;;22.90;99.90;;;;;;5027546;28;20052;-81
2023/09/21 11:44:53;;;;;;;2.78;1.02;;;22.80;99.90;;;;;;5026831;28;20029;-81
2023/09/21 11:47:22;;;;;;;3.47;1.30;;;22.90;99.90;;;;;;5025501;28;20535;-79
2023/09/21 11:49:53;;;;;;;5.25;1.65;;;22.90;99.90;;;;;;5026018;28;20472;-82
2023/09/21 11:52:20;;;;;;;7.85;1.95;;;22.80;99.90;;;;;;5022319;28;20025;-81
2023/09/21 11:54:52;;;;;;;3.35;1.42;;;22.80;99.90;;;;;;5025161;28;20022;-80
2023/09/21 11:57:19;;;;;;;2.30;1.35;;;22.80;99.90;;;;;;5025809;28;20044;-81
2023/09/21 11:59:45;;;;;;;6.15;1.60;;;22.80;99.90;;;;;;5025807;28;20042;-81
2023/09/21 12:02:16;;;;;;;6.60;1.60;;;22.80;99.90;;;;;;5042073;28;20025;-83
2023/09/21 12:04:44;;;;;;;4.22;1.70;;;22.90;99.90;;;;;;5026105;28;20033;-80
2023/09/21 12:07:10;;;;;;;5.53;1.75;;;22.90;99.90;;;;;;5025878;28;20101;-80
2023/09/21 12:09:42;;;;;;;6.55;2.28;;;23.00;99.90;;;;;;5025212;28;20030;-81
2023/09/21 12:12:13;;;;;;;5.40;2.10;;;23.00;99.90;;;;;;5027298;28;20697;-84
2023/09/21 12:14:40;;;;;;;7.00;1.85;;;23.00;99.90;;;;;;5025570;28;20029;-83
2023/09/21 12:17:09;;;;;;;2.45;1.08;;;23.10;99.90;;;;;;5022318;28;20041;-81
2023/09/21 12:19:41;;;;;;;2.47;1.58;;;23.10;99.90;;;;;;5024816;28;20021;-81
2023/09/21 12:22:08;;;;;;;5.18;1.63;;;23.00;99.90;;;;;;5037801;28;20029;-81
2023/09/21 12:24:37;;;;;;;4.63;1.85;;;23.00;99.90;;;;;;5022553;28;20155;-80
2023/09/21 12:27:06;;;;;;;4.65;1.98;;;23.00;99.90;;;;;;5025641;28;20074;-83
2023/09/21 12:29:33;;;;;;;3.13;1.88;;;22.90;99.90;;;;;;5038256;28;20056;-80
2023/09/21 12:32:04;;;;;;;7.30;2.05;;;22.90;99.90;;;;;;5024696;28;20103;-80
2023/09/21 12:34:35;;;;;;;3.63;1.83;;;22.90;99.90;;;;;;5025858;28;20095;-80
2023/09/21 12:37:01;;;;;;;6.05;2.13;;;22.90;99.90;;;;;;5018595;28;20052;-82
2023/09/21 12:39:27;;;;;;;4.28;1.58;;;22.90;99.90;;;;;;5028778;28;20120;-82
2023/09/21 12:41:55;;;;;;;8.40;1.70;;;22.90;99.90;;;;;;5025048;28;20037;-79
2023/09/21 12:44:20;;;;;;;9.15;2.78;;;22.90;99.90;;;;;;5025660;28;20199;-80
2023/09/21 12:46:46;;;;;;;6.22;2.38;;;22.80;99.90;;;;;;5037824;28;20151;-81
2023/09/21 12:49:13;;;;;;;6.82;1.83;;;22.80;99.90;;;;;;5024942;28;20029;-80
2023/09/21 12:51:39;;;;;;;3.25;1.38;;;22.80;99.90;;;;;;5025926;28;20507;-82
2023/09/21 12:54:07;;;;;;;6.07;1.88;;;22.80;99.90;;;;;;5037426;28;20041;-81